sensor_id;sensor_type;location;lat;lon;timestamp;P1;durP1;ratioP1;P2;durP2;ratioP2
18046;SDS011;9148;51.454;13.862;2023-12-14T00:02:11;6.83;;;3.80;;
18046;SDS011;9148;51.454;13.862;2023-12-14T00:04:37;6.77;;;4.20;;
18046;SDS011;9148;51.454;13.862;2023-12-14T00:07:02;4.93;;;4.27;;
18046;SDS011;9148;51.454;13.862;2023-12-14T00:09:28;4.73;;;3.97;;
18046;SDS011;9148;51.454;13.862;2023-12-14T00:11:54;4.90;;;3.30;;
18046;SDS011;9148;51.454;13.862;2023-12-14T00:14:20;7.17;;;3.77;;
18046;SDS011;9148;51.454;13.862;2023-12-14T00:16:45;5.77;;;3.63;;
18046;SDS011;9148;51.454;13.862;2023-12-14T00:19:11;5.20;;;3.30;;
18046;SDS011;9148;51.454;13.862;2023-12-14T00:21:36;5.03;;;3.13;;
18046;SDS011;9148;51.454;13.862;2023-12-14T00:24:02;6.10;;;4.13;;
18046;SDS011;9148;51.454;13.862;2023-12-14T00:26:28;5.90;;;4.07;;
18046;SDS011;9148;51.454;13.862;2023-12-14T00:28:53;4.47;;;3.13;;
18046;SDS011;9148;51.454;13.862;2023-12-14T00:31:19;7.90;;;3.57;;
18046;SDS011;9148;51.454;13.862;2023-12-14T00:33:45;4.33;;;2.87;;
18046;SDS011;9148;51.454;13.862;2023-12-14T00:36:16;7.37;;;3.50;;
18046;SDS011;9148;51.454;13.862;2023-12-14T00:38:43;6.53;;;4.00;;
18046;SDS011;9148;51.454;13.862;2023-12-14T00:41:09;7.03;;;4.13;;
18046;SDS011;9148;51.454;13.862;2023-12-14T00:43:34;9.00;;;4.93;;
18046;SDS011;9148;51.454;13.862;2023-12-14T00:46:01;6.83;;;4.73;;
18046;SDS011;9148;51.454;13.862;2023-12-14T00:48:27;4.40;;;3.33;;
18046;SDS011;9148;51.454;13.862;2023-12-14T00:50:53;8.57;;;5.27;;
18046;SDS011;9148;51.454;13.862;2023-12-14T00:53:19;13.23;;;5.10;;
18046;SDS011;9148;51.454;13.862;2023-12-14T00:55:44;9.93;;;5.17;;
18046;SDS011;9148;51.454;13.862;2023-12-14T00:58:10;8.93;;;4.73;;
18046;SDS011;9148;51.454;13.862;2023-12-14T01:00:40;9.77;;;4.33;;
18046;SDS011;9148;51.454;13.862;2023-12-14T01:03:06;11.93;;;6.13;;
18046;SDS011;9148;51.454;13.862;2023-12-14T01:05:32;9.27;;;5.17;;
18046;SDS011;9148;51.454;13.862;2023-12-14T01:07:57;4.83;;;4.37;;
18046;SDS011;9148;51.454;13.862;2023-12-14T01:10:23;9.13;;;5.57;;
18046;SDS011;9148;51.454;13.862;2023-12-14T01:12:48;8.63;;;5.53;;
18046;SDS011;9148;51.454;13.862;2023-12-14T01:15:15;6.57;;;4.27;;
18046;SDS011;9148;51.454;13.862;2023-12-14T01:17:40;6.93;;;5.07;;
18046;SDS011;9148;51.454;13.862;2023-12-14T01:20:06;13.10;;;6.23;;
18046;SDS011;9148;51.454;13.862;2023-12-14T01:22:32;11.73;;;6.30;;
18046;SDS011;9148;51.454;13.862;2023-12-14T01:24:58;11.60;;;6.23;;
18046;SDS011;9148;51.454;13.862;2023-12-14T01:27:24;8.17;;;5.77;;
18046;SDS011;9148;51.454;13.862;2023-12-14T01:29:50;7.43;;;4.90;;
18046;SDS011;9148;51.454;13.862;2023-12-14T01:32:16;9.13;;;4.73;;
18046;SDS011;9148;51.454;13.862;2023-12-14T01:34:41;7.50;;;5.30;;
18046;SDS011;9148;51.454;13.862;2023-12-14T01:37:07;8.43;;;5.00;;
18046;SDS011;9148;51.454;13.862;2023-12-14T01:39:33;9.77;;;5.07;;
18046;SDS011;9148;51.454;13.862;2023-12-14T01:41:58;10.07;;;5.37;;
18046;SDS011;9148;51.454;13.862;2023-12-14T01:44:24;14.53;;;7.40;;
18046;SDS011;9148;51.454;13.862;2023-12-14T01:46:50;9.17;;;6.23;;
18046;SDS011;9148;51.454;13.862;2023-12-14T01:49:15;7.07;;;5.50;;
18046;SDS011;9148;51.454;13.862;2023-12-14T01:51:41;11.80;;;7.40;;
18046;SDS011;9148;51.454;13.862;2023-12-14T01:54:06;9.70;;;5.20;;
18046;SDS011;9148;51.454;13.862;2023-12-14T01:56:32;7.53;;;5.53;;
18046;SDS011;9148;51.454;13.862;2023-12-14T01:58:58;11.87;;;7.20;;
18046;SDS011;9148;51.454;13.862;2023-12-14T02:01:35;13.80;;;7.43;;
18046;SDS011;9148;51.454;13.862;2023-12-14T02:04:07;14.50;;;6.87;;
18046;SDS011;9148;51.454;13.862;2023-12-14T02:06:34;15.97;;;7.47;;
18046;SDS011;9148;51.454;13.862;2023-12-14T02:09:00;10.67;;;6.23;;
18046;SDS011;9148;51.454;13.862;2023-12-14T02:11:26;12.47;;;7.40;;
18046;SDS011;9148;51.454;13.862;2023-12-14T02:13:52;9.47;;;6.53;;
18046;SDS011;9148;51.454;13.862;2023-12-14T02:16:17;15.53;;;7.43;;
18046;SDS011;9148;51.454;13.862;2023-12-14T02:18:43;11.70;;;6.20;;
18046;SDS011;9148;51.454;13.862;2023-12-14T02:21:10;12.17;;;6.70;;
18046;SDS011;9148;51.454;13.862;2023-12-14T02:23:42;8.43;;;5.80;;
18046;SDS011;9148;51.454;13.862;2023-12-14T02:26:11;12.13;;;6.77;;
18046;SDS011;9148;51.454;13.862;2023-12-14T02:28:37;9.77;;;5.47;;
18046;SDS011;9148;51.454;13.862;2023-12-14T02:31:03;11.53;;;6.83;;
18046;SDS011;9148;51.454;13.862;2023-12-14T02:33:29;14.63;;;6.23;;
18046;SDS011;9148;51.454;13.862;2023-12-14T02:35:54;13.40;;;5.73;;
18046;SDS011;9148;51.454;13.862;2023-12-14T02:38:20;7.40;;;5.53;;
18046;SDS011;9148;51.454;13.862;2023-12-14T02:40:46;16.67;;;6.47;;
18046;SDS011;9148;51.454;13.862;2023-12-14T02:43:12;6.77;;;5.40;;
18046;SDS011;9148;51.454;13.862;2023-12-14T02:45:38;11.23;;;6.23;;
18046;SDS011;9148;51.454;13.862;2023-12-14T02:48:03;9.10;;;4.33;;
18046;SDS011;9148;51.454;13.862;2023-12-14T02:50:29;12.03;;;6.07;;
18046;SDS011;9148;51.454;13.862;2023-12-14T02:52:55;9.27;;;5.10;;
18046;SDS011;9148;51.454;13.862;2023-12-14T02:55:21;10.90;;;5.77;;
18046;SDS011;9148;51.454;13.862;2023-12-14T02:57:47;11.50;;;6.60;;
18046;SDS011;9148;51.454;13.862;2023-12-14T03:00:12;9.93;;;5.83;;
18046;SDS011;9148;51.454;13.862;2023-12-14T03:02:38;16.93;;;7.23;;
18046;SDS011;9148;51.454;13.862;2023-12-14T03:05:04;11.43;;;5.07;;
18046;SDS011;9148;51.454;13.862;2023-12-14T03:07:30;12.53;;;6.33;;
18046;SDS011;9148;51.454;13.862;2023-12-14T03:09:56;11.80;;;5.60;;
18046;SDS011;9148;51.454;13.862;2023-12-14T03:12:21;12.53;;;6.37;;
18046;SDS011;9148;51.454;13.862;2023-12-14T03:14:47;9.37;;;5.87;;
18046;SDS011;9148;51.454;13.862;2023-12-14T03:17:13;8.27;;;3.87;;
18046;SDS011;9148;51.454;13.862;2023-12-14T03:19:39;11.73;;;4.50;;
18046;SDS011;9148;51.454;13.862;2023-12-14T03:22:06;10.50;;;4.93;;
18046;SDS011;9148;51.454;13.862;2023-12-14T03:24:32;10.97;;;5.47;;
18046;SDS011;9148;51.454;13.862;2023-12-14T03:26:57;9.00;;;5.43;;
18046;SDS011;9148;51.454;13.862;2023-12-14T03:29:23;11.57;;;6.83;;
18046;SDS011;9148;51.454;13.862;2023-12-14T03:31:49;10.77;;;6.17;;
18046;SDS011;9148;51.454;13.862;2023-12-14T03:34:14;14.77;;;6.77;;
18046;SDS011;9148;51.454;13.862;2023-12-14T03:36:40;10.97;;;5.83;;
18046;SDS011;9148;51.454;13.862;2023-12-14T03:39:05;11.43;;;6.37;;
18046;SDS011;9148;51.454;13.862;2023-12-14T03:41:31;14.97;;;7.43;;
18046;SDS011;9148;51.454;13.862;2023-12-14T03:43:57;13.17;;;7.93;;
18046;SDS011;9148;51.454;13.862;2023-12-14T03:46:23;14.17;;;8.03;;
18046;SDS011;9148;51.454;13.862;2023-12-14T03:48:49;10.57;;;6.73;;
18046;SDS011;9148;51.454;13.862;2023-12-14T03:51:18;7.73;;;6.10;;
18046;SDS011;9148;51.454;13.862;2023-12-14T03:53:44;11.30;;;7.33;;
18046;SDS011;9148;51.454;13.862;2023-12-14T03:56:10;10.57;;;6.10;;
18046;SDS011;9148;51.454;13.862;2023-12-14T03:58:36;13.33;;;7.10;;
18046;SDS011;9148;51.454;13.862;2023-12-14T04:01:01;7.63;;;6.50;;
18046;SDS011;9148;51.454;13.862;2023-12-14T04:03:27;13.57;;;7.67;;
18046;SDS011;9148;51.454;13.862;2023-12-14T04:05:53;15.37;;;6.80;;
18046;SDS011;9148;51.454;13.862;2023-12-14T04:08:18;15.57;;;6.00;;
18046;SDS011;9148;51.454;13.862;2023-12-14T04:10:44;15.20;;;6.30;;
18046;SDS011;9148;51.454;13.862;2023-12-14T04:13:10;8.40;;;5.53;;
18046;SDS011;9148;51.454;13.862;2023-12-14T04:15:36;9.83;;;5.73;;
18046;SDS011;9148;51.454;13.862;2023-12-14T04:18:01;7.77;;;6.27;;
18046;SDS011;9148;51.454;13.862;2023-12-14T04:20:27;10.83;;;6.10;;
18046;SDS011;9148;51.454;13.862;2023-12-14T04:22:52;11.37;;;6.37;;
18046;SDS011;9148;51.454;13.862;2023-12-14T04:25:18;12.97;;;5.77;;
18046;SDS011;9148;51.454;13.862;2023-12-14T04:27:44;9.30;;;5.77;;
18046;SDS011;9148;51.454;13.862;2023-12-14T04:30:10;9.00;;;6.30;;
18046;SDS011;9148;51.454;13.862;2023-12-14T04:32:37;11.87;;;5.63;;
18046;SDS011;9148;51.454;13.862;2023-12-14T04:35:03;13.10;;;5.60;;
18046;SDS011;9148;51.454;13.862;2023-12-14T04:37:30;8.87;;;5.90;;
18046;SDS011;9148;51.454;13.862;2023-12-14T04:39:56;8.83;;;5.63;;
18046;SDS011;9148;51.454;13.862;2023-12-14T04:42:22;8.10;;;5.73;;
18046;SDS011;9148;51.454;13.862;2023-12-14T04:44:48;14.20;;;7.70;;
18046;SDS011;9148;51.454;13.862;2023-12-14T04:47:14;9.33;;;6.07;;
18046;SDS011;9148;51.454;13.862;2023-12-14T04:49:39;15.60;;;7.10;;
18046;SDS011;9148;51.454;13.862;2023-12-14T04:52:05;9.50;;;5.77;;
18046;SDS011;9148;51.454;13.862;2023-12-14T04:54:40;7.23;;;4.70;;
18046;SDS011;9148;51.454;13.862;2023-12-14T04:57:07;9.30;;;4.87;;
18046;SDS011;9148;51.454;13.862;2023-12-14T04:59:32;7.60;;;5.50;;
18046;SDS011;9148;51.454;13.862;2023-12-14T05:01:58;9.47;;;5.40;;
18046;SDS011;9148;51.454;13.862;2023-12-14T05:04:24;9.07;;;4.73;;
18046;SDS011;9148;51.454;13.862;2023-12-14T05:06:49;6.80;;;4.17;;
18046;SDS011;9148;51.454;13.862;2023-12-14T05:09:15;7.17;;;5.80;;
18046;SDS011;9148;51.454;13.862;2023-12-14T05:11:41;10.43;;;6.37;;
18046;SDS011;9148;51.454;13.862;2023-12-14T05:14:07;9.97;;;6.33;;
18046;SDS011;9148;51.454;13.862;2023-12-14T05:16:33;8.80;;;5.33;;
18046;SDS011;9148;51.454;13.862;2023-12-14T05:18:59;10.30;;;4.97;;
18046;SDS011;9148;51.454;13.862;2023-12-14T05:21:24;7.60;;;5.33;;
18046;SDS011;9148;51.454;13.862;2023-12-14T05:23:50;8.87;;;5.60;;
18046;SDS011;9148;51.454;13.862;2023-12-14T05:26:16;11.90;;;6.50;;
18046;SDS011;9148;51.454;13.862;2023-12-14T05:28:41;10.83;;;6.10;;
18046;SDS011;9148;51.454;13.862;2023-12-14T05:31:07;12.57;;;6.20;;
18046;SDS011;9148;51.454;13.862;2023-12-14T05:33:36;9.93;;;6.47;;
18046;SDS011;9148;51.454;13.862;2023-12-14T05:36:03;10.10;;;6.33;;
18046;SDS011;9148;51.454;13.862;2023-12-14T05:38:33;11.53;;;6.10;;
18046;SDS011;9148;51.454;13.862;2023-12-14T05:40:59;7.43;;;6.63;;
18046;SDS011;9148;51.454;13.862;2023-12-14T05:43:25;10.10;;;6.93;;
18046;SDS011;9148;51.454;13.862;2023-12-14T05:45:51;11.73;;;6.10;;
18046;SDS011;9148;51.454;13.862;2023-12-14T05:48:16;13.93;;;7.10;;
18046;SDS011;9148;51.454;13.862;2023-12-14T05:50:42;13.20;;;7.20;;
18046;SDS011;9148;51.454;13.862;2023-12-14T05:53:07;10.67;;;6.90;;
18046;SDS011;9148;51.454;13.862;2023-12-14T05:55:33;12.93;;;7.80;;
18046;SDS011;9148;51.454;13.862;2023-12-14T05:57:59;11.93;;;7.17;;
18046;SDS011;9148;51.454;13.862;2023-12-14T06:00:24;10.40;;;6.87;;
18046;SDS011;9148;51.454;13.862;2023-12-14T06:02:50;7.80;;;5.73;;
18046;SDS011;9148;51.454;13.862;2023-12-14T06:05:16;10.30;;;6.10;;
18046;SDS011;9148;51.454;13.862;2023-12-14T06:07:42;7.20;;;5.90;;
18046;SDS011;9148;51.454;13.862;2023-12-14T06:10:07;9.97;;;6.27;;
18046;SDS011;9148;51.454;13.862;2023-12-14T06:12:34;8.83;;;6.13;;
18046;SDS011;9148;51.454;13.862;2023-12-14T06:15:00;11.27;;;5.33;;
18046;SDS011;9148;51.454;13.862;2023-12-14T06:17:26;8.07;;;5.23;;
18046;SDS011;9148;51.454;13.862;2023-12-14T06:19:52;9.37;;;5.60;;
18046;SDS011;9148;51.454;13.862;2023-12-14T06:22:18;9.00;;;4.73;;
18046;SDS011;9148;51.454;13.862;2023-12-14T06:24:44;9.60;;;5.10;;
18046;SDS011;9148;51.454;13.862;2023-12-14T06:27:09;10.53;;;5.30;;
18046;SDS011;9148;51.454;13.862;2023-12-14T06:29:35;7.17;;;4.53;;
18046;SDS011;9148;51.454;13.862;2023-12-14T06:32:01;6.17;;;4.10;;
18046;SDS011;9148;51.454;13.862;2023-12-14T06:34:26;7.30;;;4.20;;
18046;SDS011;9148;51.454;13.862;2023-12-14T06:36:52;5.57;;;4.40;;
18046;SDS011;9148;51.454;13.862;2023-12-14T06:39:18;7.07;;;5.00;;
18046;SDS011;9148;51.454;13.862;2023-12-14T06:41:43;6.27;;;3.90;;
18046;SDS011;9148;51.454;13.862;2023-12-14T06:44:09;7.43;;;6.03;;
18046;SDS011;9148;51.454;13.862;2023-12-14T06:46:35;6.63;;;4.17;;
18046;SDS011;9148;51.454;13.862;2023-12-14T06:49:01;6.43;;;4.80;;
18046;SDS011;9148;51.454;13.862;2023-12-14T06:51:27;7.27;;;3.87;;
18046;SDS011;9148;51.454;13.862;2023-12-14T06:53:52;5.83;;;3.97;;
18046;SDS011;9148;51.454;13.862;2023-12-14T06:56:18;9.23;;;4.90;;
18046;SDS011;9148;51.454;13.862;2023-12-14T06:58:44;7.00;;;3.80;;
18046;SDS011;9148;51.454;13.862;2023-12-14T07:01:13;5.53;;;3.03;;
18046;SDS011;9148;51.454;13.862;2023-12-14T07:03:40;5.07;;;2.60;;
18046;SDS011;9148;51.454;13.862;2023-12-14T07:06:11;6.80;;;2.93;;
18046;SDS011;9148;51.454;13.862;2023-12-14T07:08:41;3.33;;;2.60;;
18046;SDS011;9148;51.454;13.862;2023-12-14T07:11:07;6.77;;;3.53;;
18046;SDS011;9148;51.454;13.862;2023-12-14T07:13:34;3.37;;;2.97;;
18046;SDS011;9148;51.454;13.862;2023-12-14T07:16:01;4.00;;;2.97;;
18046;SDS011;9148;51.454;13.862;2023-12-14T07:18:37;4.43;;;2.90;;
18046;SDS011;9148;51.454;13.862;2023-12-14T07:21:05;3.33;;;2.27;;
18046;SDS011;9148;51.454;13.862;2023-12-14T07:23:32;3.13;;;2.27;;
18046;SDS011;9148;51.454;13.862;2023-12-14T07:26:05;3.80;;;3.00;;
18046;SDS011;9148;51.454;13.862;2023-12-14T07:28:31;3.93;;;3.03;;
18046;SDS011;9148;51.454;13.862;2023-12-14T07:30:57;4.43;;;2.60;;
18046;SDS011;9148;51.454;13.862;2023-12-14T07:33:22;3.37;;;2.80;;
18046;SDS011;9148;51.454;13.862;2023-12-14T07:35:48;4.77;;;2.73;;
18046;SDS011;9148;51.454;13.862;2023-12-14T07:38:14;7.00;;;2.27;;
18046;SDS011;9148;51.454;13.862;2023-12-14T07:40:40;2.73;;;2.43;;
18046;SDS011;9148;51.454;13.862;2023-12-14T07:43:06;5.67;;;2.60;;
18046;SDS011;9148;51.454;13.862;2023-12-14T07:45:32;3.33;;;2.70;;
18046;SDS011;9148;51.454;13.862;2023-12-14T07:47:58;4.10;;;3.03;;
18046;SDS011;9148;51.454;13.862;2023-12-14T07:50:23;4.30;;;2.50;;
18046;SDS011;9148;51.454;13.862;2023-12-14T07:52:50;3.43;;;2.73;;
18046;SDS011;9148;51.454;13.862;2023-12-14T07:55:16;3.37;;;2.53;;
18046;SDS011;9148;51.454;13.862;2023-12-14T07:57:42;4.37;;;2.63;;
18046;SDS011;9148;51.454;13.862;2023-12-14T08:00:08;3.30;;;2.80;;
18046;SDS011;9148;51.454;13.862;2023-12-14T08:02:35;5.83;;;2.73;;
18046;SDS011;9148;51.454;13.862;2023-12-14T08:05:01;3.53;;;2.70;;
18046;SDS011;9148;51.454;13.862;2023-12-14T08:07:26;3.63;;;2.73;;
18046;SDS011;9148;51.454;13.862;2023-12-14T08:09:54;3.23;;;2.70;;
18046;SDS011;9148;51.454;13.862;2023-12-14T08:12:23;4.57;;;2.70;;
18046;SDS011;9148;51.454;13.862;2023-12-14T08:14:49;4.90;;;2.73;;
18046;SDS011;9148;51.454;13.862;2023-12-14T08:17:15;6.97;;;2.43;;
18046;SDS011;9148;51.454;13.862;2023-12-14T08:19:41;4.27;;;2.37;;
18046;SDS011;9148;51.454;13.862;2023-12-14T08:22:07;3.70;;;1.80;;
18046;SDS011;9148;51.454;13.862;2023-12-14T08:24:36;2.87;;;2.30;;
18046;SDS011;9148;51.454;13.862;2023-12-14T08:27:02;2.63;;;2.10;;
18046;SDS011;9148;51.454;13.862;2023-12-14T08:29:28;4.50;;;2.30;;
18046;SDS011;9148;51.454;13.862;2023-12-14T08:31:54;5.93;;;1.77;;
18046;SDS011;9148;51.454;13.862;2023-12-14T08:34:22;2.53;;;2.20;;
18046;SDS011;9148;51.454;13.862;2023-12-14T08:36:49;4.23;;;2.33;;
18046;SDS011;9148;51.454;13.862;2023-12-14T08:39:14;3.80;;;2.43;;
18046;SDS011;9148;51.454;13.862;2023-12-14T08:41:40;2.07;;;1.70;;
18046;SDS011;9148;51.454;13.862;2023-12-14T08:44:06;6.93;;;2.17;;
18046;SDS011;9148;51.454;13.862;2023-12-14T08:46:42;5.07;;;2.53;;
18046;SDS011;9148;51.454;13.862;2023-12-14T08:49:12;4.17;;;2.37;;
18046;SDS011;9148;51.454;13.862;2023-12-14T08:51:38;4.27;;;2.40;;
18046;SDS011;9148;51.454;13.862;2023-12-14T08:54:05;2.90;;;1.97;;
18046;SDS011;9148;51.454;13.862;2023-12-14T08:56:31;3.10;;;2.50;;
18046;SDS011;9148;51.454;13.862;2023-12-14T08:58:57;2.70;;;2.07;;
18046;SDS011;9148;51.454;13.862;2023-12-14T09:01:24;2.97;;;2.43;;
18046;SDS011;9148;51.454;13.862;2023-12-14T09:03:50;3.03;;;2.00;;
18046;SDS011;9148;51.454;13.862;2023-12-14T09:06:16;3.53;;;1.63;;
18046;SDS011;9148;51.454;13.862;2023-12-14T09:08:46;4.43;;;2.17;;
18046;SDS011;9148;51.454;13.862;2023-12-14T09:11:12;3.50;;;2.07;;
18046;SDS011;9148;51.454;13.862;2023-12-14T09:13:38;2.73;;;1.60;;
18046;SDS011;9148;51.454;13.862;2023-12-14T09:16:03;6.80;;;1.90;;
18046;SDS011;9148;51.454;13.862;2023-12-14T09:18:30;2.40;;;1.93;;
18046;SDS011;9148;51.454;13.862;2023-12-14T09:20:55;3.90;;;1.93;;
18046;SDS011;9148;51.454;13.862;2023-12-14T09:23:21;2.47;;;1.67;;
18046;SDS011;9148;51.454;13.862;2023-12-14T09:25:47;3.17;;;1.53;;
18046;SDS011;9148;51.454;13.862;2023-12-14T09:28:12;1.70;;;1.30;;
18046;SDS011;9148;51.454;13.862;2023-12-14T09:30:38;1.97;;;1.73;;
18046;SDS011;9148;51.454;13.862;2023-12-14T09:33:04;2.40;;;1.23;;
18046;SDS011;9148;51.454;13.862;2023-12-14T09:35:30;1.13;;;1.13;;
18046;SDS011;9148;51.454;13.862;2023-12-14T09:37:56;1.73;;;1.30;;
18046;SDS011;9148;51.454;13.862;2023-12-14T09:40:22;1.87;;;1.23;;
18046;SDS011;9148;51.454;13.862;2023-12-14T09:42:48;0.97;;;0.87;;
18046;SDS011;9148;51.454;13.862;2023-12-14T09:45:14;1.70;;;1.03;;
18046;SDS011;9148;51.454;13.862;2023-12-14T09:47:42;4.47;;;1.30;;
18046;SDS011;9148;51.454;13.862;2023-12-14T09:50:11;2.57;;;1.30;;
18046;SDS011;9148;51.454;13.862;2023-12-14T09:52:39;1.40;;;0.93;;
18046;SDS011;9148;51.454;13.862;2023-12-14T09:55:10;2.00;;;0.60;;
18046;SDS011;9148;51.454;13.862;2023-12-14T09:57:36;1.90;;;1.27;;
18046;SDS011;9148;51.454;13.862;2023-12-14T10:00:02;1.40;;;1.20;;
18046;SDS011;9148;51.454;13.862;2023-12-14T10:02:31;1.97;;;1.40;;
18046;SDS011;9148;51.454;13.862;2023-12-14T10:04:56;3.17;;;1.33;;
18046;SDS011;9148;51.454;13.862;2023-12-14T10:07:22;1.03;;;0.80;;
18046;SDS011;9148;51.454;13.862;2023-12-14T10:09:48;2.10;;;1.40;;
18046;SDS011;9148;51.454;13.862;2023-12-14T10:12:14;2.50;;;1.17;;
18046;SDS011;9148;51.454;13.862;2023-12-14T10:14:39;1.30;;;1.10;;
18046;SDS011;9148;51.454;13.862;2023-12-14T10:17:17;4.50;;;1.67;;
18046;SDS011;9148;51.454;13.862;2023-12-14T10:19:45;1.30;;;1.20;;
18046;SDS011;9148;51.454;13.862;2023-12-14T10:22:13;1.10;;;1.00;;
18046;SDS011;9148;51.454;13.862;2023-12-14T10:24:49;1.87;;;0.90;;
18046;SDS011;9148;51.454;13.862;2023-12-14T10:27:15;1.87;;;1.40;;
18046;SDS011;9148;51.454;13.862;2023-12-14T10:29:41;3.37;;;1.93;;
18046;SDS011;9148;51.454;13.862;2023-12-14T10:32:09;1.30;;;1.20;;
18046;SDS011;9148;51.454;13.862;2023-12-14T10:34:36;1.67;;;1.53;;
18046;SDS011;9148;51.454;13.862;2023-12-14T10:37:04;2.83;;;1.77;;
18046;SDS011;9148;51.454;13.862;2023-12-14T10:39:33;2.13;;;1.67;;
18046;SDS011;9148;51.454;13.862;2023-12-14T10:42:01;3.30;;;1.30;;
18046;SDS011;9148;51.454;13.862;2023-12-14T10:44:32;3.17;;;1.57;;
18046;SDS011;9148;51.454;13.862;2023-12-14T10:47:02;2.87;;;1.90;;
18046;SDS011;9148;51.454;13.862;2023-12-14T10:49:31;3.27;;;1.33;;
18046;SDS011;9148;51.454;13.862;2023-12-14T10:51:58;3.27;;;1.47;;
18046;SDS011;9148;51.454;13.862;2023-12-14T10:54:25;2.40;;;1.60;;
18046;SDS011;9148;51.454;13.862;2023-12-14T10:56:56;7.93;;;2.20;;
18046;SDS011;9148;51.454;13.862;2023-12-14T10:59:25;2.23;;;1.40;;
18046;SDS011;9148;51.454;13.862;2023-12-14T11:01:51;3.00;;;1.73;;
18046;SDS011;9148;51.454;13.862;2023-12-14T11:04:22;2.77;;;1.73;;
18046;SDS011;9148;51.454;13.862;2023-12-14T11:06:48;5.23;;;1.90;;
18046;SDS011;9148;51.454;13.862;2023-12-14T11:09:13;3.17;;;2.57;;
18046;SDS011;9148;51.454;13.862;2023-12-14T11:14:18;3.50;;;1.93;;
18046;SDS011;9148;51.454;13.862;2023-12-14T11:16:45;1.90;;;1.73;;
18046;SDS011;9148;51.454;13.862;2023-12-14T11:19:23;3.23;;;2.07;;
18046;SDS011;9148;51.454;13.862;2023-12-14T11:24:22;6.83;;;2.30;;
18046;SDS011;9148;51.454;13.862;2023-12-14T11:26:51;5.33;;;1.80;;
18046;SDS011;9148;51.454;13.862;2023-12-14T11:29:17;2.47;;;1.77;;
18046;SDS011;9148;51.454;13.862;2023-12-14T11:31:47;5.00;;;2.30;;
18046;SDS011;9148;51.454;13.862;2023-12-14T11:34:19;2.53;;;1.63;;
18046;SDS011;9148;51.454;13.862;2023-12-14T11:36:45;2.70;;;1.73;;
18046;SDS011;9148;51.454;13.862;2023-12-14T11:39:14;3.13;;;1.97;;
18046;SDS011;9148;51.454;13.862;2023-12-14T11:41:39;4.97;;;3.30;;
18046;SDS011;9148;51.454;13.862;2023-12-14T11:44:05;2.03;;;1.90;;
18046;SDS011;9148;51.454;13.862;2023-12-14T11:46:31;2.77;;;1.87;;
18046;SDS011;9148;51.454;13.862;2023-12-14T11:48:57;2.40;;;1.93;;
18046;SDS011;9148;51.454;13.862;2023-12-14T11:51:23;8.60;;;3.03;;
18046;SDS011;9148;51.454;13.862;2023-12-14T11:53:55;4.93;;;2.73;;
18046;SDS011;9148;51.454;13.862;2023-12-14T11:56:20;3.60;;;1.83;;
18046;SDS011;9148;51.454;13.862;2023-12-14T11:58:48;2.67;;;1.90;;
18046;SDS011;9148;51.454;13.862;2023-12-14T12:01:17;4.67;;;2.67;;
18046;SDS011;9148;51.454;13.862;2023-12-14T12:03:46;3.07;;;2.37;;
18046;SDS011;9148;51.454;13.862;2023-12-14T12:06:22;5.53;;;2.53;;
18046;SDS011;9148;51.454;13.862;2023-12-14T12:09:01;3.60;;;2.07;;
18046;SDS011;9148;51.454;13.862;2023-12-14T12:11:32;5.27;;;2.97;;
18046;SDS011;9148;51.454;13.862;2023-12-14T12:13:58;5.73;;;3.10;;
18046;SDS011;9148;51.454;13.862;2023-12-14T12:16:25;4.17;;;2.73;;
18046;SDS011;9148;51.454;13.862;2023-12-14T12:18:50;2.73;;;1.90;;
18046;SDS011;9148;51.454;13.862;2023-12-14T12:21:16;3.70;;;2.17;;
18046;SDS011;9148;51.454;13.862;2023-12-14T12:23:42;5.07;;;2.83;;
18046;SDS011;9148;51.454;13.862;2023-12-14T12:26:08;4.30;;;2.43;;
18046;SDS011;9148;51.454;13.862;2023-12-14T12:28:34;7.20;;;2.80;;
18046;SDS011;9148;51.454;13.862;2023-12-14T12:31:00;7.00;;;2.43;;
18046;SDS011;9148;51.454;13.862;2023-12-14T12:33:26;7.67;;;3.17;;
18046;SDS011;9148;51.454;13.862;2023-12-14T12:35:52;4.10;;;3.03;;
18046;SDS011;9148;51.454;13.862;2023-12-14T12:38:19;6.10;;;2.80;;
18046;SDS011;9148;51.454;13.862;2023-12-14T12:40:44;3.23;;;2.53;;
18046;SDS011;9148;51.454;13.862;2023-12-14T12:43:10;6.87;;;2.93;;
18046;SDS011;9148;51.454;13.862;2023-12-14T12:45:38;4.07;;;2.57;;
18046;SDS011;9148;51.454;13.862;2023-12-14T12:48:03;4.43;;;2.53;;
18046;SDS011;9148;51.454;13.862;2023-12-14T12:50:31;5.30;;;2.80;;
18046;SDS011;9148;51.454;13.862;2023-12-14T12:52:58;3.87;;;2.50;;
18046;SDS011;9148;51.454;13.862;2023-12-14T12:55:24;5.23;;;2.53;;
18046;SDS011;9148;51.454;13.862;2023-12-14T12:57:49;4.33;;;2.17;;
18046;SDS011;9148;51.454;13.862;2023-12-14T13:00:15;3.23;;;2.20;;
18046;SDS011;9148;51.454;13.862;2023-12-14T13:02:41;5.53;;;2.90;;
18046;SDS011;9148;51.454;13.862;2023-12-14T13:05:10;2.30;;;1.80;;
18046;SDS011;9148;51.454;13.862;2023-12-14T13:07:36;2.10;;;1.83;;
18046;SDS011;9148;51.454;13.862;2023-12-14T13:10:03;4.23;;;2.27;;
18046;SDS011;9148;51.454;13.862;2023-12-14T13:12:34;3.13;;;2.37;;
18046;SDS011;9148;51.454;13.862;2023-12-14T13:15:00;2.33;;;1.97;;
18046;SDS011;9148;51.454;13.862;2023-12-14T13:17:26;2.90;;;1.60;;
18046;SDS011;9148;51.454;13.862;2023-12-14T13:19:52;3.03;;;2.10;;
18046;SDS011;9148;51.454;13.862;2023-12-14T13:22:18;5.90;;;2.70;;
18046;SDS011;9148;51.454;13.862;2023-12-14T13:24:44;3.50;;;1.93;;
18046;SDS011;9148;51.454;13.862;2023-12-14T13:27:10;4.20;;;2.17;;
18046;SDS011;9148;51.454;13.862;2023-12-14T13:29:36;2.93;;;1.80;;
18046;SDS011;9148;51.454;13.862;2023-12-14T13:32:02;3.13;;;2.03;;
18046;SDS011;9148;51.454;13.862;2023-12-14T13:34:28;3.07;;;2.40;;
18046;SDS011;9148;51.454;13.862;2023-12-14T13:36:55;4.80;;;3.20;;
18046;SDS011;9148;51.454;13.862;2023-12-14T13:39:21;4.13;;;2.50;;
18046;SDS011;9148;51.454;13.862;2023-12-14T13:41:47;1.73;;;1.63;;
18046;SDS011;9148;51.454;13.862;2023-12-14T13:44:13;3.93;;;1.97;;
18046;SDS011;9148;51.454;13.862;2023-12-14T13:46:39;2.93;;;2.17;;
18046;SDS011;9148;51.454;13.862;2023-12-14T13:49:05;3.13;;;2.30;;
18046;SDS011;9148;51.454;13.862;2023-12-14T13:51:30;2.63;;;2.37;;
18046;SDS011;9148;51.454;13.862;2023-12-14T13:53:56;3.07;;;2.57;;
18046;SDS011;9148;51.454;13.862;2023-12-14T13:56:22;3.20;;;1.77;;
18046;SDS011;9148;51.454;13.862;2023-12-14T13:58:47;4.13;;;2.43;;
18046;SDS011;9148;51.454;13.862;2023-12-14T14:01:13;2.37;;;2.17;;
18046;SDS011;9148;51.454;13.862;2023-12-14T14:03:40;2.93;;;2.33;;
18046;SDS011;9148;51.454;13.862;2023-12-14T14:06:07;4.03;;;2.47;;
18046;SDS011;9148;51.454;13.862;2023-12-14T14:08:33;3.57;;;2.43;;
18046;SDS011;9148;51.454;13.862;2023-12-14T14:11:00;6.13;;;2.90;;
18046;SDS011;9148;51.454;13.862;2023-12-14T14:13:26;2.83;;;1.90;;
18046;SDS011;9148;51.454;13.862;2023-12-14T14:15:53;2.90;;;2.27;;
18046;SDS011;9148;51.454;13.862;2023-12-14T14:18:18;1.80;;;1.70;;
18046;SDS011;9148;51.454;13.862;2023-12-14T14:20:44;7.37;;;2.40;;
18046;SDS011;9148;51.454;13.862;2023-12-14T14:23:10;2.33;;;1.73;;
18046;SDS011;9148;51.454;13.862;2023-12-14T14:25:36;5.37;;;2.07;;
18046;SDS011;9148;51.454;13.862;2023-12-14T14:28:01;3.90;;;2.10;;
18046;SDS011;9148;51.454;13.862;2023-12-14T14:30:27;2.43;;;2.03;;
18046;SDS011;9148;51.454;13.862;2023-12-14T14:32:53;3.17;;;2.03;;
18046;SDS011;9148;51.454;13.862;2023-12-14T14:35:19;6.97;;;2.50;;
18046;SDS011;9148;51.454;13.862;2023-12-14T14:37:45;2.93;;;1.80;;
18046;SDS011;9148;51.454;13.862;2023-12-14T14:40:13;2.93;;;2.07;;
18046;SDS011;9148;51.454;13.862;2023-12-14T14:42:42;1.97;;;1.50;;
18046;SDS011;9148;51.454;13.862;2023-12-14T14:45:08;3.13;;;1.87;;
18046;SDS011;9148;51.454;13.862;2023-12-14T14:47:35;2.50;;;1.87;;